createdAt,value
2023-01-26T00:00:01.200Z,10.90
2023-01-26T00:01:01.195Z,10.20
2023-01-26T00:02:01.193Z,10.40
2023-01-26T00:03:01.228Z,10.10
2023-01-26T00:04:01.251Z,10.30
2023-01-26T00:05:01.176Z,10.10
2023-01-26T00:06:01.168Z,9.90
2023-01-26T00:07:01.166Z,9.60
2023-01-26T00:08:01.155Z,9.60
2023-01-26T00:09:01.156Z,9.40
2023-01-26T00:10:01.174Z,10.30
2023-01-26T00:11:01.136Z,10.30
2023-01-26T00:12:01.143Z,10.70
2023-01-26T00:13:01.155Z,10.50
2023-01-26T00:14:01.124Z,10.50
2023-01-26T00:15:01.148Z,10.50
2023-01-26T00:16:01.157Z,10.60
2023-01-26T00:17:01.106Z,10.30
2023-01-26T00:18:01.122Z,10.50
2023-01-26T00:19:01.097Z,10.40
2023-01-26T00:20:01.136Z,10.30
2023-01-26T00:21:01.095Z,10.40
2023-01-26T00:22:01.081Z,10.10
2023-01-26T00:23:01.079Z,10.70
2023-01-26T00:24:01.133Z,10.30
2023-01-26T00:25:01.070Z,10.90
2023-01-26T00:26:01.059Z,10.50
2023-01-26T00:27:01.055Z,10.70
2023-01-26T00:28:01.047Z,10.90
2023-01-26T00:29:01.067Z,10.90
2023-01-26T00:30:01.044Z,10.80
2023-01-26T00:31:01.052Z,11.30
2023-01-26T00:32:01.032Z,10.90
2023-01-26T00:33:01.026Z,11.00
2023-01-26T00:34:01.026Z,11.70
2023-01-26T00:35:01.025Z,11.90
2023-01-26T00:36:01.010Z,11.00
2023-01-26T00:37:01.002Z,11.10
2023-01-26T00:38:01.003Z,10.90
2023-01-26T00:39:00.997Z,11.30
2023-01-26T00:40:01.002Z,11.50
2023-01-26T00:41:00.985Z,11.70
2023-01-26T00:42:00.977Z,11.60
2023-01-26T00:43:00.970Z,11.40
2023-01-26T00:44:00.977Z,11.30
2023-01-26T00:45:00.984Z,11.00
2023-01-26T00:46:00.966Z,10.80
2023-01-26T00:47:00.951Z,10.90
2023-01-26T00:48:00.960Z,10.80
2023-01-26T00:49:01.098Z,11.10
2023-01-26T00:50:00.941Z,10.90
2023-01-26T00:51:00.945Z,11.00
2023-01-26T00:52:00.929Z,11.30
2023-01-26T00:53:00.917Z,10.80
2023-01-26T00:54:00.925Z,11.20
2023-01-26T00:55:00.908Z,11.20
2023-01-26T00:56:00.906Z,11.30
2023-01-26T00:57:00.895Z,11.70
2023-01-26T00:58:00.896Z,11.40
2023-01-26T00:59:00.882Z,11.30
2023-01-26T01:00:00.891Z,11.00
2023-01-26T01:01:01.002Z,11.20
2023-01-26T01:02:00.891Z,11.40
2023-01-26T01:03:00.858Z,10.70
2023-01-26T01:04:00.877Z,10.50
2023-01-26T01:05:00.855Z,11.70
2023-01-26T01:06:00.850Z,10.90
2023-01-26T01:07:00.846Z,10.50
2023-01-26T01:08:00.845Z,10.50
2023-01-26T01:09:00.831Z,11.00
2023-01-26T01:10:00.839Z,10.50
2023-01-26T01:11:00.841Z,11.10
2023-01-26T01:12:00.820Z,10.80
2023-01-26T01:13:00.813Z,10.60
2023-01-26T01:14:00.810Z,10.40
2023-01-26T01:15:00.801Z,10.70
2023-01-26T01:16:00.819Z,10.40
2023-01-26T01:17:00.816Z,10.30
2023-01-26T01:18:00.788Z,10.50
2023-01-26T01:19:00.787Z,9.90
2023-01-26T01:20:00.776Z,10.50
2023-01-26T01:21:00.778Z,10.40
2023-01-26T01:22:00.764Z,10.30
2023-01-26T01:23:00.760Z,10.20
2023-01-26T01:24:00.801Z,10.10
2023-01-26T01:25:00.759Z,10.60
2023-01-26T01:26:00.747Z,10.40
2023-01-26T01:27:00.743Z,10.50
2023-01-26T01:28:00.733Z,10.50
2023-01-26T01:29:00.733Z,10.50
2023-01-26T01:30:00.722Z,10.30
2023-01-26T01:31:00.793Z,10.70
2023-01-26T01:32:00.797Z,9.90
2023-01-26T01:33:00.746Z,10.30
2023-01-26T01:34:00.696Z,11.00
2023-01-26T01:35:00.709Z,10.80
2023-01-26T01:36:00.692Z,10.60
2023-01-26T01:37:00.695Z,10.70
2023-01-26T01:38:00.679Z,10.70
2023-01-26T01:39:00.679Z,10.90
2023-01-26T01:40:00.669Z,10.80
2023-01-26T01:41:00.668Z,10.60
2023-01-26T01:42:00.659Z,10.90
2023-01-26T01:43:00.667Z,10.80
2023-01-26T01:44:00.646Z,11.00
2023-01-26T01:45:00.646Z,11.00
2023-01-26T01:46:00.636Z,10.60
2023-01-26T01:47:00.644Z,10.70
2023-01-26T01:48:00.625Z,11.10
2023-01-26T01:49:00.649Z,10.40
2023-01-26T01:50:00.616Z,11.00
2023-01-26T01:51:00.643Z,11.00
2023-01-26T01:52:00.604Z,10.70
2023-01-26T01:53:00.602Z,10.80
2023-01-26T01:54:00.592Z,10.60
2023-01-26T01:55:00.592Z,11.00
2023-01-26T01:56:00.584Z,10.50
2023-01-26T01:57:00.583Z,10.90
2023-01-26T01:58:00.572Z,11.00
2023-01-26T01:59:00.571Z,11.20
2023-01-26T02:00:00.571Z,10.50
2023-01-26T02:01:00.695Z,11.00
2023-01-26T02:02:00.624Z,10.90
2023-01-26T02:03:00.549Z,10.70
2023-01-26T02:04:00.542Z,11.40
2023-01-26T02:05:00.567Z,11.20
2023-01-26T02:06:00.544Z,11.40
2023-01-26T02:07:00.524Z,12.10
2023-01-26T02:08:00.528Z,11.40
2023-01-26T02:09:00.523Z,12.00
2023-01-26T02:10:00.532Z,11.80
2023-01-26T02:11:00.504Z,11.30
2023-01-26T02:12:00.513Z,12.20
2023-01-26T02:13:00.497Z,11.40
2023-01-26T02:14:00.484Z,11.20
2023-01-26T02:15:00.482Z,11.40
2023-01-26T02:16:00.561Z,11.30
2023-01-26T02:17:00.474Z,11.50
2023-01-26T02:18:00.469Z,10.90
2023-01-26T02:19:00.462Z,10.70
2023-01-26T02:20:00.464Z,11.40
2023-01-26T02:21:00.474Z,11.40
2023-01-26T02:22:00.446Z,10.90
2023-01-26T02:23:00.455Z,11.40
2023-01-26T02:24:00.431Z,10.90
2023-01-26T02:25:00.437Z,10.90
2023-01-26T02:26:00.426Z,10.90
2023-01-26T02:27:00.424Z,10.80
2023-01-26T02:28:00.410Z,10.90
2023-01-26T02:29:00.419Z,10.70
2023-01-26T02:30:00.403Z,11.00
2023-01-26T02:31:00.422Z,11.00
2023-01-26T02:32:00.392Z,10.60
2023-01-26T02:33:00.387Z,11.20
2023-01-26T02:34:00.396Z,11.20
2023-01-26T02:35:00.595Z,11.20
2023-01-26T02:36:00.369Z,11.10
2023-01-26T02:37:00.726Z,10.30
2023-01-26T02:38:00.362Z,10.40
2023-01-26T02:39:00.372Z,9.70
2023-01-26T02:40:00.352Z,10.40
2023-01-26T02:41:00.349Z,10.90
2023-01-26T02:42:00.352Z,10.60
2023-01-26T02:43:00.337Z,10.50
2023-01-26T02:44:00.340Z,10.30
2023-01-26T02:45:00.323Z,10.40
2023-01-26T02:46:00.507Z,10.90
2023-01-26T02:47:00.331Z,10.70
2023-01-26T02:48:00.304Z,12.90
2023-01-26T02:49:00.310Z,10.70
2023-01-26T02:50:00.298Z,12.70
2023-01-26T02:51:00.346Z,10.40
2023-01-26T02:52:00.298Z,10.20
2023-01-26T02:53:00.305Z,10.70
2023-01-26T02:54:00.280Z,10.50
2023-01-26T02:55:00.269Z,10.90
2023-01-26T02:56:00.270Z,10.70
2023-01-26T02:57:00.275Z,11.10
2023-01-26T02:58:00.286Z,10.40
2023-01-26T02:59:00.253Z,10.20
2023-01-26T03:00:00.244Z,11.20
2023-01-26T03:01:00.317Z,10.70
2023-01-26T03:02:00.306Z,10.80
2023-01-26T03:03:00.237Z,10.70
2023-01-26T03:04:00.222Z,10.60
2023-01-26T03:05:00.221Z,10.40
2023-01-26T03:06:00.215Z,10.30
2023-01-26T03:08:00.230Z,10.10
2023-01-26T03:09:00.219Z,11.60
2023-01-26T03:10:00.230Z,11.10
2023-01-26T03:11:00.200Z,10.60
2023-01-26T03:12:00.182Z,9.90
2023-01-26T03:13:00.187Z,10.60
2023-01-26T03:14:00.171Z,9.60
2023-01-26T03:15:00.172Z,11.70
2023-01-26T03:16:00.204Z,10.40
2023-01-26T03:17:00.156Z,10.20
2023-01-26T03:18:00.166Z,10.20
2023-01-26T03:19:00.148Z,10.40
2023-01-26T03:20:00.180Z,10.90
2023-01-26T03:21:00.138Z,11.10
2023-01-26T03:22:00.126Z,10.40
2023-01-26T03:23:00.129Z,11.10
2023-01-26T03:24:00.201Z,10.90
2023-01-26T03:25:00.140Z,10.10
2023-01-26T03:26:00.110Z,9.60
2023-01-26T03:27:00.115Z,10.20
2023-01-26T03:28:00.125Z,10.30
2023-01-26T03:29:00.095Z,10.40
2023-01-26T03:30:00.135Z,10.30
2023-01-26T03:31:00.183Z,10.00
2023-01-26T03:32:00.113Z,10.40
2023-01-26T03:33:00.099Z,9.90
2023-01-26T03:34:00.092Z,10.20
2023-01-26T03:35:00.112Z,10.70
2023-01-26T03:36:00.058Z,10.40
2023-01-26T03:37:00.074Z,10.50
2023-01-26T03:38:00.060Z,10.20
2023-01-26T03:39:00.040Z,10.60
2023-01-26T03:40:00.047Z,10.20
2023-01-26T03:41:00.070Z,10.50
2023-01-26T03:42:00.035Z,10.50
2023-01-26T03:43:00.020Z,10.30
2023-01-26T03:44:00.015Z,10.40
2023-01-26T03:45:00.013Z,10.70
2023-01-26T03:46:00.004Z,10.20
2023-01-26T03:47:00.088Z,11.10
2023-01-26T03:47:59.998Z,10.60
2023-01-26T03:48:59.992Z,10.10
2023-01-26T03:49:59.982Z,10.30
2023-01-26T03:50:59.978Z,10.20
2023-01-26T03:51:59.971Z,10.00
2023-01-26T03:52:59.970Z,10.30
2023-01-26T03:53:59.961Z,10.00
2023-01-26T03:54:59.955Z,10.60
2023-01-26T03:55:59.950Z,9.80
2023-01-26T03:56:59.972Z,10.40
2023-01-26T03:57:59.940Z,10.20
2023-01-26T03:58:59.937Z,10.70
2023-01-26T03:59:59.944Z,9.90
2023-01-26T04:01:00.029Z,10.30
2023-01-26T04:01:59.977Z,9.90
2023-01-26T04:02:59.915Z,10.30
2023-01-26T04:03:59.906Z,9.40
2023-01-26T04:04:59.908Z,9.20
2023-01-26T04:06:15.625Z,9.30
2023-01-26T04:06:59.894Z,9.40
2023-01-26T04:07:59.884Z,9.30
2023-01-26T04:08:59.879Z,9.50
2023-01-26T04:09:59.875Z,9.10
2023-01-26T04:10:59.875Z,9.20
2023-01-26T04:11:59.867Z,9.60
2023-01-26T04:12:59.885Z,9.70
2023-01-26T04:13:59.863Z,9.80
2023-01-26T04:14:59.857Z,9.90
2023-01-26T04:15:59.846Z,9.70
2023-01-26T04:16:59.848Z,9.80
2023-01-26T04:17:59.852Z,9.20
2023-01-26T04:18:59.829Z,9.50
2023-01-26T04:19:59.820Z,9.60
2023-01-26T04:20:59.817Z,9.70
2023-01-26T04:21:59.810Z,9.60
2023-01-26T04:22:59.812Z,10.10
2023-01-26T04:23:59.865Z,9.70
2023-01-26T04:24:59.806Z,10.30
2023-01-26T04:25:59.794Z,10.30
2023-01-26T04:26:59.788Z,10.50
2023-01-26T04:27:59.780Z,10.30
2023-01-26T04:28:59.801Z,9.70
2023-01-26T04:29:59.768Z,9.50
2023-01-26T04:30:59.792Z,9.30
2023-01-26T04:31:59.757Z,9.50
2023-01-26T04:32:59.759Z,9.20
2023-01-26T04:33:59.745Z,9.00
2023-01-26T04:34:59.746Z,9.20
2023-01-26T04:35:59.734Z,9.10
2023-01-26T04:36:59.734Z,9.20
2023-01-26T04:37:59.735Z,9.60
2023-01-26T04:38:59.737Z,9.60
2023-01-26T04:39:59.728Z,9.60
2023-01-26T04:40:59.712Z,10.70
2023-01-26T04:41:59.716Z,9.70
2023-01-26T04:42:59.722Z,9.40
2023-01-26T04:43:59.692Z,9.50
2023-01-26T04:44:59.718Z,9.50
2023-01-26T04:45:59.751Z,9.70
2023-01-26T04:46:59.682Z,9.30
2023-01-26T04:47:59.673Z,8.70
2023-01-26T04:48:59.675Z,9.10
2023-01-26T04:49:59.676Z,9.60
2023-01-26T04:50:59.663Z,8.90
2023-01-26T04:51:59.656Z,8.80
2023-01-26T04:52:59.651Z,8.80
2023-01-26T04:53:59.638Z,9.00
2023-01-26T04:54:59.638Z,8.70
2023-01-26T04:55:59.637Z,9.30
2023-01-26T04:56:59.628Z,8.50
2023-01-26T04:57:59.618Z,9.00
2023-01-26T04:58:59.618Z,8.80
2023-01-26T04:59:59.607Z,8.30
2023-01-26T05:00:59.681Z,9.00
2023-01-26T05:01:59.603Z,9.30
2023-01-26T05:02:59.602Z,9.30
2023-01-26T05:03:59.731Z,9.00
2023-01-26T05:04:59.591Z,9.60
2023-01-26T05:05:59.579Z,8.70
2023-01-26T05:06:59.578Z,8.70
2023-01-26T05:07:59.572Z,9.20
2023-01-26T05:08:59.566Z,10.00
2023-01-26T05:09:59.560Z,9.50
2023-01-26T05:10:59.558Z,9.60
2023-01-26T05:11:59.559Z,9.80
2023-01-26T05:12:59.550Z,9.60
2023-01-26T05:14:00.041Z,9.90
2023-01-26T05:14:59.537Z,9.90
2023-01-26T05:15:59.527Z,9.70
2023-01-26T05:16:59.550Z,9.40
2023-01-26T05:17:59.512Z,9.20
2023-01-26T05:18:59.515Z,9.60
2023-01-26T05:19:59.508Z,9.20
2023-01-26T05:20:59.503Z,8.80
2023-01-26T05:21:59.495Z,8.60
2023-01-26T05:22:59.493Z,9.60
2023-01-26T05:23:59.553Z,9.00
2023-01-26T05:24:59.483Z,9.10
2023-01-26T05:25:59.489Z,9.40
2023-01-26T05:26:59.470Z,9.70
2023-01-26T05:27:59.488Z,9.40
2023-01-26T05:28:59.471Z,9.70
2023-01-26T05:29:59.458Z,9.60
2023-01-26T05:30:59.592Z,9.00
2023-01-26T05:31:59.509Z,9.50
2023-01-26T05:32:59.470Z,9.50
2023-01-26T05:33:59.442Z,9.00
2023-01-26T05:34:59.427Z,9.20
2023-01-26T05:35:59.425Z,9.20
2023-01-26T05:36:59.413Z,9.60
2023-01-26T05:37:59.421Z,9.40
2023-01-26T05:38:59.415Z,10.00
2023-01-26T05:39:59.404Z,10.10
2023-01-26T05:40:59.397Z,9.80
2023-01-26T05:41:59.391Z,9.20
2023-01-26T05:42:59.388Z,9.40
2023-01-26T05:43:59.380Z,9.80
2023-01-26T05:44:59.385Z,9.00
2023-01-26T05:45:59.421Z,10.30
2023-01-26T05:46:59.359Z,9.20
2023-01-26T05:47:59.361Z,9.80
2023-01-26T06:01:26.772Z,9.00
2023-01-26T06:02:26.819Z,10.60
2023-01-26T06:03:26.738Z,8.90
2023-01-26T06:04:26.750Z,9.00
2023-01-26T06:05:26.732Z,9.20
2023-01-26T06:06:26.719Z,9.10
2023-01-26T06:07:26.755Z,8.90
2023-01-26T06:08:26.715Z,9.50
2023-01-26T06:09:27.574Z,9.20
2023-01-26T06:10:26.720Z,9.80
2023-01-26T06:11:26.696Z,9.30
2023-01-26T06:12:26.688Z,9.30
2023-01-26T06:13:26.693Z,8.90
2023-01-26T06:14:26.686Z,8.70
2023-01-26T06:15:26.686Z,9.30
2023-01-26T06:16:26.728Z,9.10
2023-01-26T06:17:26.693Z,10.50
2023-01-26T06:18:26.656Z,9.00
2023-01-26T06:19:26.658Z,9.30
2023-01-26T06:20:26.655Z,8.70
2023-01-26T06:21:26.654Z,9.00
2023-01-26T06:22:26.641Z,8.80
2023-01-26T06:23:26.660Z,8.80
2023-01-26T06:24:26.625Z,8.60
2023-01-26T06:25:26.620Z,8.20
2023-01-26T06:26:26.617Z,8.40
2023-01-26T06:27:26.616Z,8.20
2023-01-26T06:28:26.610Z,8.80
2023-01-26T06:29:26.602Z,8.50
2023-01-26T06:30:26.665Z,8.30
2023-01-26T06:31:26.736Z,8.50
2023-01-26T06:32:26.597Z,8.00
2023-01-26T06:33:26.609Z,8.20
2023-01-26T06:34:26.575Z,8.70
2023-01-26T06:35:26.572Z,9.90
2023-01-26T06:36:26.568Z,8.50
2023-01-26T06:37:26.563Z,8.90
2023-01-26T06:38:26.553Z,8.60
2023-01-26T06:39:26.555Z,8.70
2023-01-26T06:40:26.545Z,8.30
2023-01-26T06:41:26.542Z,8.30
2023-01-26T06:42:26.545Z,8.00
2023-01-26T06:43:26.533Z,8.70
2023-01-26T06:44:26.522Z,8.30
2023-01-26T06:45:26.528Z,8.30
2023-01-26T06:46:26.592Z,9.00
2023-01-26T06:47:26.531Z,8.30
2023-01-26T06:48:26.503Z,8.90
2023-01-26T06:49:26.811Z,9.10
2023-01-26T06:50:26.493Z,9.00
2023-01-26T06:51:26.487Z,9.00
2023-01-26T06:52:26.485Z,8.60
2023-01-26T06:53:26.479Z,8.70
2023-01-26T06:54:26.473Z,8.50
2023-01-26T06:55:26.470Z,8.60
2023-01-26T06:56:26.459Z,8.50
2023-01-26T06:57:26.459Z,8.70
2023-01-26T06:58:26.456Z,8.80
2023-01-26T06:59:26.466Z,8.50
2023-01-26T07:00:26.443Z,8.90
2023-01-26T07:01:26.530Z,9.30
2023-01-26T07:02:26.494Z,9.20
2023-01-26T07:03:26.426Z,9.00
2023-01-26T07:04:26.427Z,9.50
2023-01-26T07:05:26.435Z,9.00
2023-01-26T07:06:26.409Z,9.00
2023-01-26T07:07:26.414Z,8.80
2023-01-26T07:08:26.397Z,8.70
2023-01-26T07:09:26.395Z,9.60
2023-01-26T07:10:26.387Z,10.00
2023-01-26T07:11:26.398Z,9.50
2023-01-26T07:12:26.700Z,9.40
2023-01-26T07:13:26.380Z,8.70
2023-01-26T07:14:26.366Z,9.30
2023-01-26T07:15:26.366Z,9.30
2023-01-26T07:16:26.440Z,9.00
2023-01-26T07:17:26.354Z,9.30
2023-01-26T07:18:26.349Z,8.80
2023-01-26T07:19:26.364Z,8.80
2023-01-26T07:20:26.340Z,8.80
2023-01-26T07:21:26.352Z,8.30
2023-01-26T07:22:26.324Z,8.40
2023-01-26T07:23:26.340Z,9.20
2023-01-26T07:24:26.377Z,8.80
2023-01-26T07:25:26.314Z,9.60
2023-01-26T07:26:26.306Z,9.20
2023-01-26T07:27:26.325Z,9.10
2023-01-26T07:28:26.307Z,9.00
2023-01-26T07:29:26.299Z,9.10
2023-01-26T07:30:26.285Z,9.00
2023-01-26T07:31:26.392Z,8.10
2023-01-26T07:32:26.280Z,8.70
2023-01-26T07:33:26.285Z,9.40
2023-01-26T07:34:26.265Z,8.80
2023-01-26T07:35:26.261Z,8.40
2023-01-26T07:36:26.256Z,9.00
2023-01-26T07:37:26.270Z,8.40
2023-01-26T07:38:26.255Z,8.30
2023-01-26T07:39:26.246Z,8.20
2023-01-26T07:40:26.237Z,8.40
2023-01-26T07:41:26.238Z,8.30
2023-01-26T07:42:26.222Z,8.80
2023-01-26T07:43:26.223Z,9.10
2023-01-26T07:44:26.211Z,8.70
2023-01-26T07:45:26.213Z,9.40
2023-01-26T07:46:26.286Z,9.20
2023-01-26T07:47:26.199Z,9.20
2023-01-26T07:48:26.188Z,9.30
2023-01-26T07:49:26.193Z,9.30
2023-01-26T07:50:26.183Z,9.70
2023-01-26T07:51:26.188Z,9.30
2023-01-26T07:52:26.171Z,8.80
2023-01-26T07:53:26.192Z,8.80
2023-01-26T07:54:26.161Z,9.40
2023-01-26T07:55:26.162Z,8.80
2023-01-26T07:56:26.152Z,9.60
2023-01-26T07:57:26.148Z,8.90
2023-01-26T07:58:26.138Z,9.10
2023-01-26T07:59:26.136Z,9.40
2023-01-26T08:00:26.135Z,9.00
2023-01-26T08:01:26.160Z,9.50
2023-01-26T08:02:26.122Z,9.10
2023-01-26T08:03:26.116Z,9.10
2023-01-26T08:04:26.109Z,9.10
2023-01-26T08:05:26.108Z,9.20
2023-01-26T08:06:26.102Z,9.70
2023-01-26T08:07:26.098Z,9.60
2023-01-26T08:08:26.087Z,9.70
2023-01-26T08:09:26.131Z,10.10
2023-01-26T08:10:26.080Z,9.60
2023-01-26T08:11:26.079Z,9.60
2023-01-26T08:12:26.068Z,10.10
2023-01-26T08:13:34.720Z,9.60
2023-01-26T08:14:33.139Z,9.50
2023-01-26T08:15:26.056Z,9.80
2023-01-26T08:16:26.111Z,10.20
2023-01-26T08:17:26.049Z,10.10
2023-01-26T08:18:26.039Z,10.10
2023-01-26T08:19:26.047Z,9.80
2023-01-26T08:20:26.026Z,10.30
2023-01-26T08:21:26.024Z,9.50
2023-01-26T08:22:26.021Z,9.70
2023-01-26T08:23:26.014Z,9.80
2023-01-26T08:24:26.021Z,10.40
2023-01-26T08:25:26.025Z,10.00
2023-01-26T08:26:26.000Z,9.50
2023-01-26T08:27:25.998Z,10.70
2023-01-26T08:28:26.005Z,10.80
2023-01-26T08:29:25.987Z,10.60
2023-01-26T08:30:25.985Z,10.60
2023-01-26T08:31:26.136Z,10.60
2023-01-26T08:32:25.965Z,11.00
2023-01-26T08:33:25.974Z,10.50
2023-01-26T08:34:25.957Z,10.60
2023-01-26T08:35:25.962Z,10.90
2023-01-26T08:36:25.956Z,10.70
2023-01-26T08:37:25.947Z,10.10
2023-01-26T08:38:25.934Z,10.10
2023-01-26T08:39:25.936Z,10.60
2023-01-26T08:40:25.924Z,10.40
2023-01-26T08:41:25.950Z,10.00
2023-01-26T08:42:25.926Z,10.30
2023-01-26T08:43:25.917Z,10.10
2023-01-26T08:44:25.909Z,10.10
2023-01-26T08:45:25.903Z,10.50
2023-01-26T08:46:25.893Z,10.20
2023-01-26T08:47:25.954Z,10.50
2023-01-26T08:48:25.889Z,10.10
2023-01-26T08:49:25.893Z,10.50
2023-01-26T08:50:25.923Z,10.20
2023-01-26T08:51:25.872Z,10.10
2023-01-26T08:52:25.860Z,10.20
2023-01-26T08:53:25.865Z,10.30
2023-01-26T08:54:25.911Z,11.20
2023-01-26T08:55:25.858Z,10.80
2023-01-26T08:56:25.845Z,10.80
2023-01-26T08:57:25.863Z,10.30
2023-01-26T08:58:25.832Z,10.60
2023-01-26T08:59:25.834Z,10.60
2023-01-26T09:00:25.817Z,9.80
2023-01-26T09:01:25.849Z,10.60
2023-01-26T09:02:25.926Z,10.70
2023-01-26T09:03:25.810Z,10.70
2023-01-26T09:04:25.803Z,10.70
2023-01-26T09:05:25.809Z,11.50
2023-01-26T09:06:25.791Z,10.20
2023-01-26T09:07:25.794Z,10.60
2023-01-26T09:08:25.776Z,10.40
2023-01-26T09:09:25.788Z,10.60
2023-01-26T09:10:25.773Z,10.10
2023-01-26T09:11:25.767Z,10.00
2023-01-26T09:12:25.759Z,9.90
2023-01-26T09:13:25.794Z,10.20
2023-01-26T09:14:25.751Z,10.30
2023-01-26T09:15:25.757Z,9.60
2023-01-26T09:16:25.814Z,9.70
2023-01-26T09:17:25.736Z,9.80
2023-01-26T09:18:25.732Z,10.00
2023-01-26T09:19:25.736Z,9.70
2023-01-26T09:20:25.718Z,9.40
2023-01-26T09:21:25.829Z,9.50
2023-01-26T09:22:25.705Z,9.70
2023-01-26T09:23:25.705Z,10.30
2023-01-26T09:24:25.875Z,10.20
2023-01-26T09:25:25.694Z,9.40
2023-01-26T09:26:25.691Z,9.20
2023-01-26T09:27:25.683Z,9.30
2023-01-26T09:28:25.680Z,10.10
2023-01-26T09:29:25.698Z,9.60
2023-01-26T09:30:25.824Z,9.50
2023-01-26T09:31:25.764Z,8.80
2023-01-26T09:32:25.654Z,8.70
2023-01-26T09:33:25.669Z,9.00
2023-01-26T09:34:25.645Z,9.80
2023-01-26T09:35:25.652Z,9.60
2023-01-26T09:36:25.635Z,9.40
2023-01-26T09:37:25.637Z,9.20
2023-01-26T09:38:25.631Z,9.30
2023-01-26T09:39:25.621Z,9.20
2023-01-26T09:40:25.613Z,10.30
2023-01-26T09:41:25.618Z,9.80
2023-01-26T09:42:25.609Z,9.40
2023-01-26T09:43:25.606Z,9.70
2023-01-26T09:44:25.600Z,9.60
2023-01-26T09:45:25.616Z,9.50
2023-01-26T09:46:25.703Z,10.30
2023-01-26T09:47:25.584Z,9.30
2023-01-26T09:48:25.613Z,9.40
2023-01-26T09:49:25.588Z,9.70
2023-01-26T09:50:25.565Z,9.90
2023-01-26T09:51:25.569Z,10.10
2023-01-26T09:52:25.558Z,9.90
2023-01-26T09:53:25.561Z,9.50
2023-01-26T09:54:25.595Z,9.60
2023-01-26T09:55:25.547Z,9.90
2023-01-26T09:56:25.542Z,10.00
2023-01-26T09:57:25.533Z,9.60
2023-01-26T09:58:25.522Z,9.60
2023-01-26T09:59:25.517Z,9.30
2023-01-26T10:00:25.517Z,9.80
2023-01-26T10:01:25.651Z,9.50
2023-01-26T10:02:25.533Z,11.40
2023-01-26T10:03:25.502Z,9.50
2023-01-26T10:04:25.497Z,9.20
2023-01-26T10:05:25.499Z,9.30
2023-01-26T10:06:25.487Z,9.20
2023-01-26T10:07:25.476Z,10.20
2023-01-26T10:08:25.472Z,10.90
2023-01-26T10:09:25.480Z,10.40
2023-01-26T10:10:25.463Z,9.80
2023-01-26T10:11:25.463Z,9.60
2023-01-26T10:12:25.470Z,10.10
2023-01-26T10:13:25.446Z,10.10
2023-01-26T10:14:25.441Z,10.10
2023-01-26T10:15:25.542Z,9.60
2023-01-26T10:16:25.433Z,10.30
2023-01-26T10:17:25.473Z,10.10
2023-01-26T10:18:25.424Z,10.10
2023-01-26T10:19:25.415Z,10.20
2023-01-26T10:20:25.409Z,10.10
2023-01-26T10:21:25.406Z,10.30
2023-01-26T10:22:25.402Z,10.50
2023-01-26T10:23:25.391Z,10.60
2023-01-26T10:24:25.441Z,10.00
2023-01-26T10:25:25.520Z,10.10
2023-01-26T10:26:25.379Z,10.10
2023-01-26T10:27:25.370Z,10.00
2023-01-26T10:28:25.376Z,10.80
2023-01-26T10:29:25.362Z,10.10
2023-01-26T10:30:25.401Z,10.50
2023-01-26T10:31:25.581Z,10.20
2023-01-26T10:32:25.347Z,10.50
2023-01-26T10:33:25.358Z,10.70
2023-01-26T10:34:25.352Z,10.60
2023-01-26T10:35:25.330Z,10.70
2023-01-26T10:36:25.331Z,10.40
2023-01-26T10:37:25.320Z,10.50
2023-01-26T10:38:25.325Z,9.70
2023-01-26T10:39:25.310Z,10.30
2023-01-26T10:40:25.310Z,10.20
2023-01-26T10:41:25.322Z,10.60
2023-01-26T10:42:25.303Z,10.70
2023-01-26T10:43:25.290Z,10.60
2023-01-26T10:44:25.290Z,10.10
2023-01-26T10:45:25.279Z,11.20
2023-01-26T10:46:25.310Z,10.60
2023-01-26T10:47:25.268Z,9.80
2023-01-26T10:48:25.270Z,10.10
2023-01-26T10:49:25.284Z,10.10
2023-01-26T10:50:25.272Z,10.40
2023-01-26T10:51:25.249Z,10.80
2023-01-26T10:52:25.253Z,10.40
2023-01-26T10:53:25.236Z,10.40
2023-01-26T10:54:25.295Z,10.60
2023-01-26T10:55:25.244Z,10.40
2023-01-26T10:56:25.230Z,10.50
2023-01-26T10:57:25.222Z,10.20
2023-01-26T10:58:25.214Z,10.40
2023-01-26T10:59:25.204Z,10.00
2023-01-26T11:00:25.227Z,9.80
2023-01-26T11:01:25.234Z,10.10
2023-01-26T11:02:25.237Z,10.10
2023-01-26T11:03:25.184Z,10.00
2023-01-26T11:04:25.185Z,9.50
2023-01-26T11:05:25.504Z,9.50
2023-01-26T11:06:25.175Z,9.30
2023-01-26T11:07:25.169Z,9.10
2023-01-26T11:08:25.166Z,9.70
2023-01-26T11:09:25.154Z,8.90
2023-01-26T11:10:25.151Z,9.10
2023-01-26T11:11:25.145Z,9.20
2023-01-26T11:12:25.155Z,9.60
2023-01-26T11:13:25.140Z,9.10
2023-01-26T11:14:25.134Z,9.50
2023-01-26T11:15:25.137Z,11.10
2023-01-26T11:16:25.218Z,9.30
2023-01-26T11:17:25.116Z,9.30
2023-01-26T11:18:25.118Z,10.30
2023-01-26T11:19:25.109Z,9.30
2023-01-26T11:20:25.120Z,9.60
2023-01-26T11:21:25.114Z,10.20
2023-01-26T11:22:25.098Z,9.70
2023-01-26T11:23:25.085Z,10.30
2023-01-26T11:24:25.162Z,9.70
2023-01-26T11:25:25.074Z,10.10
2023-01-26T11:26:25.083Z,10.00
2023-01-26T11:27:25.069Z,9.70
2023-01-26T11:28:25.080Z,9.90
2023-01-26T11:29:25.062Z,10.20
2023-01-26T11:30:25.057Z,9.30
2023-01-26T11:31:25.083Z,9.30
2023-01-26T11:32:25.041Z,10.40
2023-01-26T11:33:25.032Z,10.00
2023-01-26T11:34:25.037Z,10.10
2023-01-26T11:35:25.021Z,10.50
2023-01-26T11:36:25.021Z,10.70
2023-01-26T11:37:25.038Z,11.00
2023-01-26T11:38:25.011Z,9.70
2023-01-26T11:39:25.011Z,9.80
2023-01-26T11:40:25.005Z,10.40
2023-01-26T11:41:24.999Z,9.30
2023-01-26T11:42:24.995Z,9.60
2023-01-26T11:43:24.984Z,9.60
2023-01-26T11:44:24.989Z,9.60
2023-01-26T11:45:25.068Z,10.20
2023-01-26T11:46:24.969Z,9.90
2023-01-26T11:47:24.972Z,10.30
2023-01-26T11:48:24.964Z,10.50
2023-01-26T11:49:24.962Z,10.00
2023-01-26T11:50:24.970Z,9.70
2023-01-26T11:51:24.942Z,9.70
2023-01-26T11:52:24.942Z,10.00
2023-01-26T11:53:25.427Z,10.10
2023-01-26T11:54:24.937Z,10.70
2023-01-26T11:55:24.935Z,10.30
2023-01-26T11:56:24.919Z,10.30
2023-01-26T11:57:24.912Z,10.30
2023-01-26T11:58:24.914Z,11.80
2023-01-26T11:59:24.901Z,9.80
2023-01-26T12:00:30.513Z,10.30
2023-01-26T12:01:24.892Z,10.10
2023-01-26T12:02:27.505Z,10.10
2023-01-26T12:03:24.949Z,10.10
2023-01-26T12:04:24.881Z,9.20
2023-01-26T12:05:24.873Z,10.30
2023-01-26T12:06:24.869Z,10.10
2023-01-26T12:07:24.872Z,9.30
2023-01-26T12:08:24.864Z,9.10
2023-01-26T12:09:24.877Z,8.90
2023-01-26T12:10:24.862Z,8.90
2023-01-26T12:11:24.859Z,9.00
2023-01-26T12:12:24.854Z,8.70
2023-01-26T12:13:24.832Z,9.10
2023-01-26T12:14:24.837Z,8.90
2023-01-26T12:15:24.828Z,9.30
2023-01-26T12:16:24.843Z,9.60
2023-01-26T12:17:24.817Z,9.60
2023-01-26T12:18:32.217Z,9.50
2023-01-26T12:19:24.811Z,10.00
2023-01-26T12:20:24.810Z,10.10
2023-01-26T12:21:24.789Z,9.40
2023-01-26T12:22:24.896Z,9.40
2023-01-26T12:23:24.783Z,9.70
2023-01-26T12:24:54.175Z,9.30
2023-01-26T12:25:24.801Z,9.10
2023-01-26T12:26:24.776Z,9.10
2023-01-26T12:27:24.756Z,9.40
2023-01-26T12:28:24.762Z,9.30
2023-01-26T12:29:24.751Z,9.40
2023-01-26T12:30:24.954Z,9.50
2023-01-26T12:31:24.854Z,9.40
2023-01-26T12:32:24.744Z,9.70
2023-01-26T12:33:24.732Z,9.60
2023-01-26T12:34:24.728Z,10.00
2023-01-26T12:35:24.721Z,9.40
2023-01-26T12:36:24.721Z,9.10
2023-01-26T12:37:24.711Z,9.70
2023-01-26T12:38:24.711Z,9.80
2023-01-26T12:39:24.703Z,11.50
2023-01-26T12:40:24.708Z,10.00
2023-01-26T12:41:24.716Z,9.70
2023-01-26T12:42:24.694Z,9.70
2023-01-26T12:43:24.681Z,9.40
2023-01-26T12:44:24.679Z,9.40
2023-01-26T12:45:24.682Z,9.30
2023-01-26T12:46:24.799Z,9.40
2023-01-26T12:47:24.659Z,9.10
2023-01-26T12:48:24.662Z,8.90
2023-01-26T12:49:24.729Z,9.50
2023-01-26T12:50:24.675Z,9.20
2023-01-26T12:51:24.656Z,9.20
2023-01-26T12:52:24.638Z,9.80
2023-01-26T12:53:24.630Z,9.50
2023-01-26T12:54:24.627Z,9.00
2023-01-26T12:55:24.617Z,9.70
2023-01-26T12:56:24.620Z,9.60
2023-01-26T12:57:24.634Z,9.60
2023-01-26T12:58:24.610Z,10.30
2023-01-26T12:59:47.108Z,10.30
2023-01-26T13:00:24.622Z,10.50
2023-01-26T13:01:24.607Z,10.10
2023-01-26T13:02:24.742Z,9.90
2023-01-26T13:03:24.586Z,10.60
2023-01-26T13:04:24.573Z,10.10
2023-01-26T13:05:24.568Z,9.70
2023-01-26T13:06:24.621Z,10.20
2023-01-26T13:07:24.575Z,9.40
2023-01-26T13:08:24.568Z,10.00
2023-01-26T13:09:24.563Z,9.40
2023-01-26T13:10:24.552Z,9.50
2023-01-26T13:11:24.541Z,9.60
2023-01-26T13:12:24.551Z,9.40
2023-01-26T13:13:24.557Z,9.90
2023-01-26T13:14:24.559Z,9.20
2023-01-26T13:15:24.524Z,9.70
2023-01-26T13:16:24.552Z,9.80
2023-01-26T13:17:24.510Z,9.70
2023-01-26T13:18:24.517Z,10.60